createdAt,value
2022-10-03T00:00:55.284Z,8.83
2022-10-03T00:01:55.295Z,8.83
2022-10-03T00:02:55.293Z,8.92
2022-10-03T00:03:55.242Z,8.89
2022-10-03T00:04:55.222Z,8.98
2022-10-03T00:05:55.222Z,8.95
2022-10-03T00:06:55.217Z,9.01
2022-10-03T00:07:55.183Z,9.11
2022-10-03T00:08:55.171Z,9.11
2022-10-03T00:09:55.178Z,9.18
2022-10-03T00:10:55.170Z,9.14
2022-10-03T00:11:55.134Z,9.11
2022-10-03T00:12:55.128Z,9.26
2022-10-03T00:13:55.113Z,9.21
2022-10-03T00:14:55.105Z,9.36
2022-10-03T00:15:55.168Z,9.33
2022-10-03T00:16:55.099Z,9.32
2022-10-03T00:17:55.070Z,9.40
2022-10-03T00:18:55.059Z,9.43
2022-10-03T00:19:55.046Z,9.51
2022-10-03T00:20:55.056Z,9.58
2022-10-03T00:21:55.032Z,9.48
2022-10-03T00:22:55.013Z,9.64
2022-10-03T00:23:55.002Z,9.68
2022-10-03T00:24:54.993Z,9.78
2022-10-03T00:25:55.008Z,9.81
2022-10-03T00:26:54.975Z,9.78
2022-10-03T00:27:55.034Z,9.94
2022-10-03T00:28:54.948Z,9.90
2022-10-03T00:29:54.958Z,9.87
2022-10-03T00:30:54.973Z,9.84
2022-10-03T00:31:55.010Z,9.93
2022-10-03T00:32:54.921Z,9.87
2022-10-03T00:33:54.893Z,9.94
2022-10-03T00:34:54.903Z,9.94
2022-10-03T00:35:54.901Z,9.89
2022-10-03T00:36:54.861Z,9.93
2022-10-03T00:37:54.846Z,9.97
2022-10-03T00:38:54.838Z,9.90
2022-10-03T00:39:54.823Z,9.94
2022-10-03T00:40:54.895Z,9.93
2022-10-03T00:41:54.803Z,9.99
2022-10-03T00:42:54.795Z,9.94
2022-10-03T00:43:54.781Z,9.81
2022-10-03T00:44:54.772Z,9.89
2022-10-03T00:45:54.784Z,9.94
2022-10-03T00:46:54.911Z,9.91
2022-10-03T00:47:54.736Z,9.90
2022-10-03T00:48:54.746Z,9.94
2022-10-03T00:49:54.733Z,9.94
2022-10-03T00:50:54.706Z,9.96
2022-10-03T00:51:54.699Z,9.89
2022-10-03T00:52:54.681Z,9.89
2022-10-03T00:53:54.830Z,9.93
2022-10-03T00:54:54.660Z,9.87
2022-10-03T00:55:54.655Z,9.83
2022-10-03T00:56:54.640Z,9.97
2022-10-03T00:57:54.629Z,9.93
2022-10-03T00:58:54.635Z,9.89
2022-10-03T00:59:54.604Z,9.84
2022-10-03T01:00:54.643Z,9.94
2022-10-03T01:01:54.651Z,9.94
2022-10-03T01:02:54.570Z,9.97
2022-10-03T01:03:54.560Z,9.97
2022-10-03T01:04:54.596Z,9.89
2022-10-03T01:05:54.543Z,9.84
2022-10-03T01:06:54.558Z,9.90
2022-10-03T01:07:54.514Z,9.93
2022-10-03T01:08:54.501Z,9.99
2022-10-03T01:09:54.495Z,9.99
2022-10-03T01:10:54.502Z,9.94
2022-10-03T01:11:54.476Z,9.94
2022-10-03T01:12:54.478Z,9.91
2022-10-03T01:13:54.449Z,9.90
2022-10-03T01:14:54.434Z,9.91
2022-10-03T01:15:54.547Z,9.89
2022-10-03T01:16:54.412Z,10.04
2022-10-03T01:17:54.429Z,9.93
2022-10-03T01:18:54.397Z,9.91
2022-10-03T01:19:54.392Z,9.91
2022-10-03T01:20:54.386Z,9.84
2022-10-03T01:21:54.378Z,9.81
2022-10-03T01:22:54.366Z,9.91
2022-10-03T01:23:54.335Z,9.81
2022-10-03T01:24:54.325Z,9.81
2022-10-03T01:25:54.316Z,9.93
2022-10-03T01:26:54.302Z,9.76
2022-10-03T01:27:54.347Z,9.78
2022-10-03T01:28:54.278Z,9.89
2022-10-03T01:29:54.280Z,9.91
2022-10-03T01:30:54.285Z,9.83
2022-10-03T01:31:54.338Z,9.84
2022-10-03T01:32:54.235Z,9.87
2022-10-03T01:33:54.243Z,9.81
2022-10-03T01:34:54.212Z,9.90
2022-10-03T01:35:54.286Z,9.87
2022-10-03T01:36:54.211Z,9.97
2022-10-03T01:37:54.209Z,9.93
2022-10-03T01:38:54.187Z,9.89
2022-10-03T01:39:54.171Z,9.97
2022-10-03T01:40:54.143Z,9.94
2022-10-03T01:41:54.137Z,9.91
2022-10-03T01:42:54.123Z,9.97
2022-10-03T01:43:54.132Z,9.99
2022-10-03T01:44:54.098Z,9.94
2022-10-03T01:45:54.089Z,9.96
2022-10-03T01:46:54.122Z,9.86
2022-10-03T01:47:54.076Z,9.89
2022-10-03T01:48:54.079Z,9.97
2022-10-03T01:49:54.044Z,9.93
2022-10-03T01:50:54.033Z,9.90
2022-10-03T01:51:54.022Z,9.94
2022-10-03T01:52:54.046Z,10.07
2022-10-03T01:53:54.002Z,10.02
2022-10-03T01:54:53.988Z,10.02
2022-10-03T01:55:53.977Z,10.01
2022-10-03T01:56:53.966Z,9.97
2022-10-03T01:57:54.292Z,10.05
2022-10-03T01:58:53.963Z,10.02
2022-10-03T01:59:53.940Z,10.05
2022-10-03T02:00:53.967Z,10.02
2022-10-03T02:01:53.957Z,10.02
2022-10-03T02:02:53.897Z,10.04
2022-10-03T02:03:53.909Z,10.02
2022-10-03T02:04:53.894Z,10.09
2022-10-03T02:05:53.865Z,10.05
2022-10-03T02:06:53.852Z,10.11
2022-10-03T02:07:53.842Z,10.12
2022-10-03T02:08:53.903Z,10.05
2022-10-03T02:09:53.822Z,10.02
2022-10-03T02:10:53.808Z,10.04
2022-10-03T02:11:53.799Z,10.15
2022-10-03T02:12:53.791Z,10.12
2022-10-03T02:13:53.810Z,10.17
2022-10-03T02:14:53.765Z,10.15
2022-10-03T02:15:53.807Z,10.20
2022-10-03T02:16:53.742Z,10.20
2022-10-03T02:17:53.732Z,10.23
2022-10-03T02:18:53.743Z,10.15
2022-10-03T02:19:53.709Z,10.30
2022-10-03T02:20:53.718Z,10.15
2022-10-03T02:21:53.695Z,10.15
2022-10-03T02:22:53.674Z,10.17
2022-10-03T02:23:53.667Z,10.23
2022-10-03T02:24:53.690Z,10.15
2022-10-03T02:25:53.665Z,10.20
2022-10-03T02:26:56.203Z,10.29
2022-10-03T02:27:53.647Z,10.30
2022-10-03T02:28:53.608Z,10.22
2022-10-03T02:29:53.618Z,10.27
2022-10-03T02:30:53.584Z,10.26
2022-10-03T02:31:53.628Z,10.25
2022-10-03T02:32:53.561Z,10.26
2022-10-03T02:33:53.552Z,10.29
2022-10-03T02:34:53.562Z,10.32
2022-10-03T02:35:53.530Z,10.38
2022-10-03T02:36:53.534Z,10.38
2022-10-03T02:37:53.530Z,10.41
2022-10-03T02:38:53.494Z,10.45
2022-10-03T02:39:53.486Z,10.53
2022-10-03T02:40:53.509Z,10.45
2022-10-03T02:41:53.465Z,10.44
2022-10-03T02:42:53.473Z,10.51
2022-10-03T02:43:53.444Z,10.55
2022-10-03T02:44:53.429Z,10.55
2022-10-03T02:45:53.478Z,10.48
2022-10-03T02:46:53.414Z,10.48
2022-10-03T02:48:00.012Z,10.52
2022-10-03T02:48:54.385Z,10.55
2022-10-03T02:49:53.372Z,10.55
2022-10-03T02:50:53.456Z,10.64
2022-10-03T02:51:53.352Z,10.64
2022-10-03T02:52:53.359Z,10.61
2022-10-03T02:53:53.328Z,10.64
2022-10-03T02:54:53.320Z,10.63
2022-10-03T02:55:53.312Z,10.60
2022-10-03T02:56:53.313Z,10.64
2022-10-03T02:57:53.306Z,10.73
2022-10-03T02:58:53.271Z,10.70
2022-10-03T02:59:53.260Z,10.67
2022-10-03T03:00:53.325Z,10.81
2022-10-03T03:01:53.293Z,10.78
2022-10-03T03:02:53.229Z,10.76
2022-10-03T03:03:53.216Z,10.79
2022-10-03T03:04:53.232Z,10.70
2022-10-03T03:05:53.195Z,10.86
2022-10-03T03:06:53.207Z,10.71
2022-10-03T03:07:53.174Z,10.86
2022-10-03T03:08:53.164Z,10.82
2022-10-03T03:09:53.171Z,10.74
2022-10-03T03:10:53.145Z,10.84
2022-10-03T03:11:53.155Z,10.81
2022-10-03T03:12:53.162Z,10.74
2022-10-03T03:13:53.104Z,10.78
2022-10-03T03:14:53.126Z,10.73
2022-10-03T03:15:53.086Z,10.82
2022-10-03T03:16:53.093Z,10.81
2022-10-03T03:17:53.062Z,10.73
2022-10-03T03:18:53.052Z,10.78
2022-10-03T03:19:53.038Z,10.79
2022-10-03T03:20:53.030Z,10.79
2022-10-03T03:21:53.039Z,10.73
2022-10-03T03:22:53.002Z,10.81
2022-10-03T03:23:52.991Z,10.82
2022-10-03T03:24:52.998Z,10.79
2022-10-03T03:25:53.021Z,10.78
2022-10-03T03:26:52.984Z,10.84
2022-10-03T03:27:52.997Z,10.82
2022-10-03T03:28:55.656Z,10.73
2022-10-03T03:29:52.956Z,10.76
2022-10-03T03:30:52.935Z,10.78
2022-10-03T03:31:52.956Z,10.78
2022-10-03T03:32:52.917Z,10.79
2022-10-03T03:33:52.886Z,10.78
2022-10-03T03:34:52.870Z,10.74
2022-10-03T03:35:52.858Z,10.79
2022-10-03T03:36:52.856Z,10.78
2022-10-03T03:37:52.857Z,10.84
2022-10-03T03:38:52.823Z,10.79
2022-10-03T03:39:52.814Z,10.79
2022-10-03T03:40:52.802Z,10.88
2022-10-03T03:41:52.804Z,10.81
2022-10-03T03:42:52.798Z,10.84
2022-10-03T03:43:52.769Z,10.85
2022-10-03T03:44:52.885Z,10.79
2022-10-03T03:45:52.776Z,10.82
2022-10-03T03:46:52.733Z,10.79
2022-10-03T03:47:52.945Z,10.86
2022-10-03T03:48:52.710Z,10.86
2022-10-03T03:49:52.703Z,10.79
2022-10-03T03:50:52.712Z,10.79
2022-10-03T03:51:52.678Z,10.81
2022-10-03T03:52:52.669Z,10.81
2022-10-03T03:53:52.655Z,10.70
2022-10-03T03:54:52.852Z,10.70
2022-10-03T03:55:52.660Z,10.61
2022-10-03T03:56:52.620Z,10.64
2022-10-03T03:57:52.615Z,10.61
2022-10-03T03:58:52.611Z,10.61
2022-10-03T03:59:52.589Z,10.56
2022-10-03T04:00:52.671Z,10.63
2022-10-03T04:01:52.637Z,10.68
2022-10-03T04:02:52.573Z,10.66
2022-10-03T04:03:52.566Z,10.61
2022-10-03T04:04:52.530Z,10.66
2022-10-03T04:05:52.522Z,10.55
2022-10-03T04:06:52.512Z,10.61
2022-10-03T04:07:52.501Z,10.51
2022-10-03T04:08:52.506Z,10.51
2022-10-03T04:09:52.500Z,10.51
2022-10-03T04:10:52.469Z,10.55
2022-10-03T04:11:52.454Z,10.42
2022-10-03T04:12:52.440Z,10.51
2022-10-03T04:13:52.435Z,10.52
2022-10-03T04:14:52.442Z,10.36
2022-10-03T04:15:52.411Z,10.41
2022-10-03T04:16:52.490Z,10.41
2022-10-03T04:17:52.387Z,10.52
2022-10-03T04:18:52.378Z,10.48
2022-10-03T04:19:52.387Z,10.55
2022-10-03T04:20:52.351Z,10.44
2022-10-03T04:21:52.344Z,10.48
2022-10-03T04:22:52.335Z,10.48
2022-10-03T04:23:52.319Z,10.44
2022-10-03T04:24:52.331Z,10.47
2022-10-03T04:25:52.297Z,10.51
2022-10-03T04:26:52.287Z,10.45
2022-10-03T04:27:52.311Z,10.38
2022-10-03T04:28:52.262Z,10.34
2022-10-03T04:29:55.990Z,10.34
2022-10-03T04:30:52.240Z,10.34
2022-10-03T04:31:52.273Z,10.33
2022-10-03T04:32:52.234Z,10.29
2022-10-03T04:33:52.208Z,10.30
2022-10-03T04:34:52.472Z,10.32
2022-10-03T04:35:52.187Z,10.26
2022-10-03T04:36:52.173Z,10.32
2022-10-03T04:37:52.167Z,10.29
2022-10-03T04:38:52.151Z,10.26
2022-10-03T04:39:52.165Z,10.23
2022-10-03T04:40:52.147Z,10.36
2022-10-03T04:41:52.141Z,10.26
2022-10-03T04:42:52.130Z,10.32
2022-10-03T04:43:52.097Z,10.34
2022-10-03T04:44:52.107Z,10.34
2022-10-03T04:45:52.122Z,10.34
2022-10-03T04:46:52.086Z,10.40
2022-10-03T04:47:52.051Z,10.41
2022-10-03T04:48:52.156Z,10.44
2022-10-03T04:49:52.031Z,10.42
2022-10-03T04:50:52.037Z,10.40
2022-10-03T04:51:55.389Z,10.41
2022-10-03T04:52:52.021Z,10.40
2022-10-03T04:53:51.986Z,10.38
2022-10-03T04:54:51.970Z,10.36
2022-10-03T04:55:51.961Z,10.33
2022-10-03T04:56:51.949Z,10.38
2022-10-03T04:57:51.939Z,10.44
2022-10-03T04:58:51.956Z,10.51
2022-10-03T04:59:51.916Z,10.51
2022-10-03T05:00:51.954Z,10.51
2022-10-03T05:01:51.921Z,10.41
2022-10-03T05:02:51.881Z,10.45
2022-10-03T05:03:51.871Z,10.45
2022-10-03T05:04:54.994Z,10.38
2022-10-03T05:05:51.850Z,10.36
2022-10-03T05:06:51.839Z,10.38
2022-10-03T05:07:51.846Z,10.38
2022-10-03T05:08:51.816Z,10.34
2022-10-03T05:09:51.808Z,10.36
2022-10-03T05:10:51.794Z,10.34
2022-10-03T05:11:51.783Z,10.22
2022-10-03T05:12:51.790Z,10.26
2022-10-03T05:13:51.766Z,10.26
2022-10-03T05:14:51.747Z,10.18
2022-10-03T05:15:51.736Z,10.27
2022-10-03T05:16:51.791Z,10.22
2022-10-03T05:17:51.797Z,10.14
2022-10-03T05:18:51.724Z,10.29
2022-10-03T05:19:51.691Z,10.15
2022-10-03T05:20:51.700Z,10.17
2022-10-03T05:21:51.689Z,10.09
2022-10-03T05:22:51.660Z,10.09
2022-10-03T05:23:51.645Z,10.02
2022-10-03T05:24:51.825Z,10.01
2022-10-03T05:25:51.623Z,9.91
2022-10-03T05:26:51.614Z,9.91
2022-10-03T05:27:51.669Z,9.96
2022-10-03T05:28:51.591Z,9.94
2022-10-03T05:29:51.602Z,9.89
2022-10-03T05:30:51.570Z,9.84
2022-10-03T05:31:51.604Z,9.89
2022-10-03T05:32:51.548Z,9.91
2022-10-03T05:33:51.541Z,9.83
2022-10-03T05:34:51.562Z,9.75
2022-10-03T05:35:51.518Z,9.79
2022-10-03T05:36:51.542Z,9.83
2022-10-03T05:37:51.490Z,9.83
2022-10-03T05:38:51.481Z,9.72
2022-10-03T05:39:51.469Z,9.76
2022-10-03T05:40:51.459Z,9.76
2022-10-03T05:42:10.992Z,9.79
2022-10-03T05:42:52.439Z,9.79
2022-10-03T05:43:51.424Z,9.72
2022-10-03T05:44:51.416Z,9.72
2022-10-03T05:45:51.459Z,9.68
2022-10-03T05:46:51.394Z,9.71
2022-10-03T05:47:51.382Z,9.79
2022-10-03T05:48:51.374Z,9.78
2022-10-03T05:49:51.359Z,9.75
2022-10-03T05:50:51.379Z,9.84
2022-10-03T05:51:51.335Z,9.79
2022-10-03T05:52:51.341Z,9.84
2022-10-03T05:53:51.317Z,9.91
2022-10-03T05:54:51.336Z,9.87
2022-10-03T05:55:51.311Z,9.87
2022-10-03T05:56:51.281Z,9.90
2022-10-03T05:57:51.275Z,9.96
2022-10-03T05:58:51.285Z,10.05
2022-10-03T05:59:51.246Z,10.04
2022-10-03T06:00:51.236Z,10.04
2022-10-03T06:01:51.256Z,10.04
2022-10-03T06:02:51.374Z,10.14
2022-10-03T06:03:51.201Z,10.17
2022-10-03T06:04:51.211Z,10.14
2022-10-03T06:05:51.181Z,10.27
2022-10-03T06:06:51.172Z,10.14
2022-10-03T06:07:51.159Z,10.23
2022-10-03T06:08:51.167Z,10.25
2022-10-03T06:09:51.154Z,10.25
2022-10-03T06:10:51.216Z,10.29
2022-10-03T06:11:51.133Z,10.29
2022-10-03T06:12:51.105Z,10.32
2022-10-03T06:13:51.092Z,10.38
2022-10-03T06:14:51.086Z,10.38
2022-10-03T06:15:51.231Z,10.40
2022-10-03T06:16:51.080Z,10.45
2022-10-03T06:17:51.046Z,10.41
2022-10-03T06:18:51.057Z,10.48
2022-10-03T06:19:51.024Z,10.47
2022-10-03T06:20:51.015Z,10.55
2022-10-03T06:21:51.024Z,10.44
2022-10-03T06:22:51.033Z,10.56
2022-10-03T06:23:50.986Z,10.51
2022-10-03T06:24:50.984Z,10.53
2022-10-03T06:25:50.954Z,10.60
2022-10-03T06:26:50.980Z,10.53
2022-10-03T06:27:51.043Z,10.64
2022-10-03T06:28:50.927Z,10.63
2022-10-03T06:29:50.940Z,10.63
2022-10-03T06:30:50.948Z,10.59
2022-10-03T06:31:50.888Z,10.60
2022-10-03T06:32:50.881Z,10.70
2022-10-03T06:33:50.868Z,10.64
2022-10-03T06:34:50.898Z,10.71
2022-10-03T06:35:50.844Z,10.79
2022-10-03T06:36:50.834Z,10.97
2022-10-03T06:37:50.842Z,11.09
2022-10-03T06:38:50.816Z,11.10
2022-10-03T06:39:50.800Z,11.15
2022-10-03T06:40:50.807Z,11.22
2022-10-03T06:41:50.779Z,11.24
2022-10-03T06:42:50.851Z,11.32
2022-10-03T06:43:50.757Z,11.33
2022-10-03T06:44:50.746Z,11.39
2022-10-03T06:45:50.796Z,11.43
2022-10-03T06:46:50.723Z,11.40
2022-10-03T06:47:50.731Z,11.40
2022-10-03T06:48:50.704Z,11.36
2022-10-03T06:49:50.709Z,11.51
2022-10-03T06:50:50.694Z,11.58
2022-10-03T06:51:50.666Z,11.57
2022-10-03T06:52:50.658Z,11.55
2022-10-03T06:53:50.663Z,11.60
2022-10-03T06:54:50.682Z,11.52
2022-10-03T06:55:50.622Z,11.64
2022-10-03T06:56:50.627Z,11.60
2022-10-03T06:57:50.704Z,11.58
2022-10-03T06:58:50.613Z,11.65
2022-10-03T06:59:50.576Z,11.69
2022-10-03T07:00:50.590Z,11.58
2022-10-03T07:01:50.674Z,11.61
2022-10-03T07:02:50.635Z,11.58
2022-10-03T07:03:50.531Z,11.73
2022-10-03T07:04:50.524Z,11.70
2022-10-03T07:05:50.533Z,11.60
2022-10-03T07:06:50.500Z,11.67
2022-10-03T07:07:50.488Z,11.73
2022-10-03T07:08:50.485Z,11.72
2022-10-03T07:09:50.464Z,11.80
2022-10-03T07:10:50.458Z,11.82
2022-10-03T07:11:50.473Z,11.88
2022-10-03T07:12:50.449Z,11.90
2022-10-03T07:13:50.420Z,11.95
2022-10-03T07:14:50.416Z,11.90
2022-10-03T07:16:20.623Z,11.86
2022-10-03T07:16:51.478Z,11.88
2022-10-03T07:17:50.391Z,12.04
2022-10-03T07:18:50.366Z,12.04
2022-10-03T07:19:50.373Z,12.01
2022-10-03T07:20:50.366Z,11.99
2022-10-03T07:21:50.330Z,12.01
2022-10-03T07:22:50.322Z,12.09
2022-10-03T07:23:50.310Z,12.01
2022-10-03T07:24:50.298Z,12.02
2022-10-03T07:25:50.308Z,12.14
2022-10-03T07:26:50.278Z,12.05
2022-10-03T07:27:51.407Z,12.09
2022-10-03T07:28:50.274Z,12.13
2022-10-03T07:29:50.242Z,12.07
2022-10-03T07:30:50.287Z,12.09
2022-10-03T07:31:50.243Z,12.10
2022-10-03T07:32:50.210Z,12.10
2022-10-03T07:33:50.197Z,12.14
2022-10-03T07:34:50.211Z,12.12
2022-10-03T07:35:50.201Z,12.13
2022-10-03T07:36:50.166Z,12.23
2022-10-03T07:37:50.153Z,12.24
2022-10-03T07:38:50.174Z,12.24
2022-10-03T07:39:50.133Z,12.20
2022-10-03T07:40:50.123Z,12.23
2022-10-03T07:41:50.109Z,12.28
2022-10-03T07:42:50.099Z,12.34
2022-10-03T07:43:50.111Z,12.29
2022-10-03T07:44:50.102Z,12.37
2022-10-03T07:45:50.069Z,12.28
2022-10-03T07:46:50.055Z,12.34
2022-10-03T07:47:50.075Z,12.29
2022-10-03T07:48:50.035Z,12.38
2022-10-03T07:49:50.054Z,12.38
2022-10-03T07:50:50.017Z,12.24
2022-10-03T07:51:49.998Z,12.23
2022-10-03T07:52:50.011Z,12.32
2022-10-03T07:53:49.975Z,12.38
2022-10-03T07:54:49.973Z,12.45
2022-10-03T07:55:49.954Z,12.39
2022-10-03T07:56:49.944Z,12.39
2022-10-03T07:57:49.954Z,12.45
2022-10-03T07:58:49.922Z,12.46
2022-10-03T07:59:49.910Z,12.53
2022-10-03T08:00:49.937Z,12.52
2022-10-03T08:01:49.886Z,12.59
2022-10-03T08:02:49.986Z,12.53
2022-10-03T08:03:49.906Z,12.47
2022-10-03T08:04:49.856Z,12.62
2022-10-03T08:05:49.846Z,12.64
2022-10-03T08:06:49.854Z,12.64
2022-10-03T08:07:49.841Z,12.64
2022-10-03T08:08:49.811Z,12.72
2022-10-03T08:09:49.804Z,12.71
2022-10-03T08:10:49.790Z,12.78
2022-10-03T08:11:49.802Z,12.85
2022-10-03T08:12:49.765Z,12.83
2022-10-03T08:13:49.754Z,12.79
2022-10-03T08:14:49.746Z,12.87
2022-10-03T08:15:49.818Z,12.85
2022-10-03T08:16:49.737Z,12.93
2022-10-03T08:17:49.732Z,12.96
2022-10-03T08:18:49.699Z,12.92
2022-10-03T08:19:49.688Z,13.03
2022-10-03T08:20:49.680Z,13.07
2022-10-03T08:21:49.684Z,13.08
2022-10-03T08:22:49.654Z,13.05
2022-10-03T08:23:49.643Z,13.12
2022-10-03T08:24:49.630Z,13.15
2022-10-03T08:25:49.620Z,13.00
2022-10-03T08:26:49.629Z,13.11
2022-10-03T08:27:49.649Z,13.08
2022-10-03T08:28:49.610Z,13.01
2022-10-03T08:29:49.572Z,13.08
2022-10-03T08:30:49.603Z,13.12
2022-10-03T08:31:49.579Z,13.15
2022-10-03T08:32:49.557Z,13.14
2022-10-03T08:33:49.631Z,13.26
2022-10-03T08:34:49.546Z,13.12
2022-10-03T08:35:49.506Z,13.11
2022-10-03T08:36:49.517Z,13.11
2022-10-03T08:37:49.483Z,13.25
2022-10-03T08:38:49.480Z,13.20
2022-10-03T08:39:49.482Z,13.14
2022-10-03T08:40:49.469Z,13.03
2022-10-03T08:41:49.441Z,13.17
2022-10-03T08:42:49.429Z,13.12
2022-10-03T08:43:49.417Z,13.26
2022-10-03T08:44:49.427Z,13.32
2022-10-03T08:45:49.393Z,13.44
2022-10-03T08:46:49.433Z,13.51
2022-10-03T08:47:49.406Z,13.48
2022-10-03T08:48:49.378Z,13.57
2022-10-03T08:49:49.348Z,13.57
2022-10-03T08:50:49.342Z,13.49
2022-10-03T08:51:49.336Z,13.57
2022-10-03T08:52:49.615Z,13.55
2022-10-03T08:53:49.304Z,13.64
2022-10-03T08:54:49.294Z,13.70
2022-10-03T08:55:49.280Z,13.82
2022-10-03T08:56:49.271Z,13.70
2022-10-03T08:57:49.281Z,13.82
2022-10-03T08:58:49.251Z,13.78
2022-10-03T08:59:49.236Z,13.91
2022-10-03T09:00:49.228Z,13.87
2022-10-03T09:01:49.302Z,13.84
2022-10-03T09:03:02.067Z,13.87
2022-10-03T09:03:50.239Z,13.88
2022-10-03T09:04:49.208Z,13.99
2022-10-03T09:05:49.170Z,14.02
2022-10-03T09:07:15.468Z,13.87
2022-10-03T09:07:50.147Z,13.95
2022-10-03T09:08:49.159Z,13.96
2022-10-03T09:09:49.124Z,14.10
2022-10-03T09:10:49.118Z,14.14
2022-10-03T09:11:49.101Z,14.22
2022-10-03T09:12:49.113Z,14.10
2022-10-03T09:13:49.102Z,14.32
2022-10-03T09:14:49.071Z,14.22
2022-10-03T09:15:49.128Z,14.28
2022-10-03T09:16:49.049Z,14.29
2022-10-03T09:17:49.058Z,14.28
2022-10-03T09:18:49.025Z,14.28
2022-10-03T09:19:49.012Z,14.14
2022-10-03T09:20:49.047Z,14.12
2022-10-03T09:21:48.991Z,14.07
2022-10-03T09:22:48.983Z,14.12
2022-10-03T09:23:49.374Z,14.02
2022-10-03T09:24:48.962Z,13.89
2022-10-03T09:25:48.948Z,13.85
2022-10-03T09:26:48.936Z,13.82
2022-10-03T09:27:48.970Z,13.81
2022-10-03T09:28:48.934Z,13.79
2022-10-03T09:29:48.902Z,13.84
2022-10-03T09:30:48.895Z,13.87
2022-10-03T09:31:48.961Z,13.84
2022-10-03T09:32:48.891Z,13.77
2022-10-03T09:33:48.858Z,13.75
2022-10-03T09:34:48.845Z,13.79
2022-10-03T09:35:48.835Z,13.87
2022-10-03T09:36:48.841Z,13.91
2022-10-03T09:37:48.851Z,13.92
2022-10-03T09:38:48.803Z,13.99
2022-10-03T09:39:48.791Z,13.95
2022-10-03T09:40:53.244Z,14.09
2022-10-03T09:41:48.772Z,14.07
2022-10-03T09:42:48.776Z,14.07
2022-10-03T09:43:48.749Z,14.09
2022-10-03T09:44:48.734Z,14.14
2022-10-03T09:45:48.724Z,14.22
2022-10-03T09:46:48.808Z,14.21
2022-10-03T09:47:48.731Z,14.25
2022-10-03T09:48:48.691Z,14.24
2022-10-03T09:49:48.682Z,14.28
2022-10-03T09:50:48.668Z,14.25
2022-10-03T09:51:48.660Z,14.29
2022-10-03T09:52:48.690Z,14.29
2022-10-03T09:53:48.634Z,14.28
2022-10-03T09:54:48.625Z,14.25
2022-10-03T09:55:48.613Z,14.27
2022-10-03T09:56:48.626Z,14.22
2022-10-03T09:57:48.595Z,14.33
2022-10-03T09:58:48.607Z,14.32
2022-10-03T09:59:48.590Z,14.35
2022-10-03T10:00:48.601Z,14.37
2022-10-03T10:01:48.547Z,14.39
2022-10-03T10:02:48.554Z,14.43
2022-10-03T10:03:48.576Z,14.55
2022-10-03T10:04:55.246Z,14.58
2022-10-03T10:05:49.504Z,14.60
2022-10-03T10:06:48.495Z,14.78
2022-10-03T10:07:48.507Z,14.84
2022-10-03T10:08:48.486Z,14.86
2022-10-03T10:09:48.458Z,14.80
2022-10-03T10:10:48.465Z,14.73
2022-10-03T10:11:48.460Z,14.72
2022-10-03T10:12:48.424Z,14.68
2022-10-03T10:14:06.615Z,14.80
2022-10-03T10:14:49.400Z,14.86
2022-10-03T10:15:48.433Z,14.94
2022-10-03T10:16:48.854Z,14.94
2022-10-03T10:17:48.390Z,14.99
2022-10-03T10:18:48.358Z,14.96
2022-10-03T10:19:48.348Z,14.91
2022-10-03T10:20:48.335Z,15.09
2022-10-03T10:21:48.325Z,15.11
2022-10-03T10:22:48.331Z,15.13
2022-10-03T10:23:48.303Z,15.21
2022-10-03T10:24:48.304Z,15.09
2022-10-03T10:25:48.284Z,15.21
2022-10-03T10:26:48.277Z,15.21
2022-10-03T10:27:48.328Z,15.23
2022-10-03T10:28:48.246Z,15.36
2022-10-03T10:29:48.237Z,15.28
2022-10-03T10:30:48.223Z,15.35
2022-10-03T10:31:48.291Z,15.35
2022-10-03T10:32:48.250Z,15.39
2022-10-03T10:33:48.191Z,15.49
2022-10-03T10:34:48.179Z,15.39
2022-10-03T10:35:48.173Z,15.35
2022-10-03T10:36:48.156Z,15.39
2022-10-03T10:37:48.147Z,15.35
2022-10-03T10:38:48.159Z,15.35
2022-10-03T10:39:48.124Z,15.38
2022-10-03T10:40:48.132Z,15.35
2022-10-03T10:41:48.103Z,15.36
2022-10-03T10:42:48.091Z,15.39
2022-10-03T10:43:48.081Z,15.35
2022-10-03T10:44:48.096Z,15.49
2022-10-03T10:45:48.080Z,15.53
2022-10-03T10:46:48.133Z,15.53
2022-10-03T10:47:48.038Z,15.56
2022-10-03T10:48:48.024Z,15.67
2022-10-03T10:49:48.015Z,15.64
2022-10-03T10:50:48.001Z,15.80
2022-10-03T10:51:48.013Z,15.75
2022-10-03T10:52:47.984Z,15.83
2022-10-03T10:53:47.968Z,16.00
2022-10-03T10:54:47.956Z,16.05
2022-10-03T10:55:47.950Z,16.11
2022-10-03T10:56:47.972Z,16.14
2022-10-03T10:57:47.944Z,16.15
2022-10-03T10:58:48.045Z,16.14
2022-10-03T10:59:47.903Z,16.20
2022-10-03T11:00:47.930Z,16.09
2022-10-03T11:01:47.880Z,16.04
2022-10-03T11:02:47.869Z,16.09
2022-10-03T11:03:48.169Z,16.11
2022-10-03T11:04:47.908Z,16.12
2022-10-03T11:05:47.850Z,16.15
2022-10-03T11:06:47.823Z,16.12
2022-10-03T11:07:51.836Z,16.30
2022-10-03T11:08:48.819Z,16.21
2022-10-03T11:09:47.834Z,16.23
2022-10-03T11:10:47.777Z,16.15
2022-10-03T11:11:47.768Z,16.21
2022-10-03T11:12:47.777Z,16.21
2022-10-03T11:13:47.745Z,16.12
2022-10-03T11:14:47.738Z,16.24
2022-10-03T11:15:47.759Z,16.31
2022-10-03T11:16:47.833Z,16.30
2022-10-03T11:17:47.702Z,16.38
2022-10-03T11:18:47.687Z,16.30
2022-10-03T11:19:47.702Z,16.39
2022-10-03T11:20:47.664Z,16.35
2022-10-03T11:21:47.659Z,16.38
2022-10-03T11:22:47.649Z,16.39
2022-10-03T11:23:47.633Z,16.38
2022-10-03T11:24:47.644Z,16.38
2022-10-03T11:25:47.613Z,16.31
2022-10-03T11:26:47.600Z,16.24
2022-10-03T11:27:47.592Z,16.20
2022-10-03T11:28:47.687Z,16.20
2022-10-03T11:29:47.589Z,16.14
2022-10-03T11:30:47.556Z,16.20
2022-10-03T11:31:47.613Z,16.20
2022-10-03T11:32:47.535Z,16.12
2022-10-03T11:33:47.531Z,16.04
2022-10-03T11:34:47.532Z,16.14
2022-10-03T11:35:47.503Z,16.25
2022-10-03T11:36:47.489Z,16.12
2022-10-03T11:37:47.478Z,16.25
2022-10-03T11:38:47.486Z,16.35
2022-10-03T11:39:47.454Z,16.34
2022-10-03T11:40:47.441Z,16.30
2022-10-03T11:41:47.431Z,16.43
2022-10-03T11:42:47.420Z,16.46
2022-10-03T11:43:47.439Z,16.42
2022-10-03T11:44:47.418Z,16.49
2022-10-03T11:45:47.433Z,16.52
2022-10-03T11:46:47.379Z,16.56
2022-10-03T11:47:47.386Z,16.78
2022-10-03T11:48:47.353Z,16.85
2022-10-03T11:49:47.371Z,16.83
2022-10-03T11:50:47.331Z,16.96
2022-10-03T11:51:51.508Z,17.14
2022-10-03T11:52:48.307Z,17.06
2022-10-03T11:53:47.321Z,17.08
2022-10-03T11:54:47.290Z,17.14
2022-10-03T11:55:47.281Z,17.08
2022-10-03T11:56:47.267Z,17.04
2022-10-03T11:57:47.275Z,17.03
2022-10-03T11:58:47.242Z,16.98
2022-10-03T11:59:47.232Z,16.93
2022-10-03T12:00:47.239Z,16.89
2022-10-03T12:01:51.348Z,17.01
2022-10-03T12:02:47.376Z,16.91
2022-10-03T12:03:47.188Z,16.85
2022-10-03T12:04:47.184Z,16.91
2022-10-03T12:05:47.165Z,16.94
2022-10-03T12:06:47.152Z,16.82
2022-10-03T12:07:47.263Z,16.66
2022-10-03T12:08:47.132Z,16.46
2022-10-03T12:09:47.121Z,16.46
2022-10-03T12:10:47.111Z,16.35
2022-10-03T12:11:47.100Z,16.38
2022-10-03T12:12:47.090Z,16.41
2022-10-03T12:13:47.260Z,16.30
2022-10-03T12:14:47.074Z,16.34
2022-10-03T12:15:47.055Z,16.21
2022-10-03T12:16:47.140Z,16.20
2022-10-03T12:17:47.041Z,16.27
2022-10-03T12:18:47.048Z,16.14
2022-10-03T12:19:47.008Z,16.28
2022-10-03T12:20:46.996Z,16.23
2022-10-03T12:21:46.987Z,16.25
2022-10-03T12:22:46.973Z,16.27
2022-10-03T12:23:46.987Z,16.27
2022-10-03T12:24:46.954Z,16.20
2022-10-03T12:25:46.944Z,16.14
2022-10-03T12:26:46.928Z,16.09
2022-10-03T12:27:46.949Z,16.02
2022-10-03T12:28:46.906Z,16.02
2022-10-03T12:29:46.898Z,16.02
2022-10-03T12:30:46.909Z,16.02
2022-10-03T12:31:46.968Z,15.94
2022-10-03T12:32:46.878Z,15.94
2022-10-03T12:33:46.880Z,15.97
2022-10-03T12:34:46.840Z,16.07
2022-10-03T12:35:46.829Z,16.08
2022-10-03T12:36:46.817Z,16.04
2022-10-03T12:37:46.809Z,16.05
2022-10-03T12:38:50.916Z,15.93
2022-10-03T12:39:46.805Z,16.02
2022-10-03T12:40:46.777Z,16.07
2022-10-03T12:41:46.782Z,16.07
2022-10-03T12:42:46.847Z,16.12
2022-10-03T12:43:46.769Z,16.23
2022-10-03T12:44:46.729Z,16.14
2022-10-03T12:45:46.757Z,16.23
2022-10-03T12:46:46.705Z,16.25
2022-10-03T12:47:56.775Z,16.24
2022-10-03T12:48:47.723Z,16.24
2022-10-03T12:49:46.684Z,16.24
2022-10-03T12:50:46.663Z,16.21
2022-10-03T12:51:46.672Z,16.12
2022-10-03T12:52:46.662Z,16.28
2022-10-03T12:53:46.631Z,16.31
2022-10-03T12:54:46.616Z,16.38
2022-10-03T12:55:46.607Z,16.38
2022-10-03T12:56:46.597Z,16.45
2022-10-03T12:57:46.605Z,16.48